createdAt,value
2019-05-21T00:00:29.130Z,19.83
2019-05-21T00:10:34.828Z,15.53
2019-05-21T00:20:39.412Z,12.37
2019-05-21T00:31:20.531Z,12.03
2019-05-21T00:42:02.074Z,18.60
2019-05-21T00:52:09.161Z,20.57
2019-05-21T01:02:13.743Z,21.57
2019-05-21T01:12:18.375Z,22.53
2019-05-21T01:22:22.832Z,17.70
2019-05-21T01:32:28.443Z,22.17
2019-05-21T01:42:33.028Z,26.53
2019-05-21T01:52:37.622Z,23.90
2019-05-21T02:02:42.125Z,19.97
2019-05-21T02:12:46.564Z,21.70
2019-05-21T02:22:50.997Z,18.30
2019-05-21T02:32:55.462Z,18.00
2019-05-21T02:42:59.917Z,14.47
2019-05-21T02:53:04.719Z,12.00
2019-05-21T03:03:17.006Z,15.83
2019-05-21T03:13:21.507Z,13.07
2019-05-21T03:23:27.087Z,12.73
2019-05-21T03:33:32.537Z,13.47
2019-05-21T03:43:37.074Z,17.40
2019-05-21T03:53:41.549Z,13.93
2019-05-21T04:03:46.093Z,11.63
2019-05-21T04:13:51.663Z,15.97
2019-05-21T04:23:56.226Z,14.30
2019-05-21T04:34:00.701Z,16.37
2019-05-21T04:44:05.276Z,14.80
2019-05-21T04:54:09.800Z,16.20
2019-05-21T05:04:14.370Z,13.03
2019-05-21T05:14:20.096Z,15.20
2019-05-21T05:24:24.551Z,13.87
2019-05-21T05:34:29.016Z,16.73
2019-05-21T05:44:33.625Z,11.73
2019-05-21T05:54:38.053Z,7.73
2019-05-21T06:04:42.623Z,7.20
2019-05-21T06:14:47.105Z,8.97
2019-05-21T06:24:52.602Z,15.17
2019-05-21T06:34:57.066Z,15.83
2019-05-21T06:45:02.201Z,12.37
2019-05-21T06:55:08.007Z,11.63
2019-05-21T07:05:12.676Z,14.43
2019-05-21T07:15:17.201Z,12.03
2019-05-21T07:25:22.674Z,7.33
2019-05-21T07:35:27.276Z,6.60
2019-05-21T07:45:32.021Z,6.83
2019-05-21T07:55:36.589Z,6.93
2019-05-21T08:05:41.110Z,11.03
2019-05-21T08:15:45.653Z,3.90
2019-05-21T08:25:50.180Z,4.30
2019-05-21T08:35:54.639Z,3.93
2019-05-21T08:45:59.084Z,4.80
2019-05-21T08:56:03.765Z,4.87
2019-05-21T09:06:08.360Z,4.50
2019-05-21T09:16:12.825Z,5.03
2019-05-21T09:36:26.118Z,5.30
2019-05-21T09:46:30.624Z,3.70
2019-05-21T09:56:38.132Z,5.53
2019-05-21T10:06:42.844Z,2.40
2019-05-21T10:16:47.503Z,2.30
2019-05-21T10:26:52.035Z,2.63
2019-05-21T10:36:56.702Z,3.57
2019-05-21T10:47:01.138Z,2.63
2019-05-21T10:57:05.797Z,3.07
2019-05-21T11:07:12.385Z,5.00
2019-05-21T11:17:17.686Z,3.90
2019-05-21T11:27:22.301Z,6.70
2019-05-21T11:37:26.761Z,5.40
2019-05-21T11:47:31.229Z,7.23
2019-05-21T11:57:35.668Z,4.67
2019-05-21T12:07:40.104Z,3.63
2019-05-21T12:17:44.730Z,5.47
2019-05-21T12:27:49.301Z,4.70
2019-05-21T12:37:53.734Z,6.67
2019-05-21T12:47:58.249Z,3.70
2019-05-21T12:58:02.743Z,3.90
2019-05-21T13:08:07.323Z,3.73
2019-05-21T13:18:11.854Z,4.13
2019-05-21T13:28:16.452Z,6.03
2019-05-21T13:38:20.955Z,3.57
2019-05-21T13:48:25.398Z,4.57
2019-05-21T13:58:30.139Z,3.70
2019-05-21T14:08:35.785Z,4.57
2019-05-21T14:18:40.320Z,4.47
2019-05-21T14:28:44.880Z,3.00
2019-05-21T14:38:49.357Z,3.05
2019-05-21T14:48:53.896Z,4.33
2019-05-21T14:58:58.382Z,3.83
2019-05-21T15:09:04.674Z,9.40
2019-05-21T15:19:09.394Z,15.37
2019-05-21T15:29:13.946Z,9.33
2019-05-21T15:39:18.488Z,10.43
2019-05-21T15:49:35.457Z,6.63
2019-05-21T15:59:29.277Z,7.83
2019-05-21T16:09:33.801Z,10.07
2019-05-21T16:19:38.310Z,10.30
2019-05-21T16:29:43.899Z,12.27
2019-05-21T16:39:48.481Z,19.45
2019-05-21T16:49:52.961Z,17.43
2019-05-21T16:59:57.632Z,20.57
2019-05-21T17:10:02.313Z,19.30
2019-05-21T17:20:09.255Z,15.33
2019-05-21T17:30:14.297Z,17.27
2019-05-21T17:40:19.064Z,10.10
2019-05-21T17:50:24.271Z,10.80
2019-05-21T18:00:33.576Z,15.87
2019-05-21T18:10:38.308Z,17.37
2019-05-21T18:20:43.403Z,16.53
2019-05-21T18:30:48.286Z,18.93
2019-05-21T18:40:52.916Z,22.37
2019-05-21T18:50:57.615Z,23.10
2019-05-21T19:01:02.419Z,32.00
2019-05-21T19:11:07.252Z,23.40
2019-05-21T19:31:15.548Z,15.93
2019-05-21T19:41:20.267Z,15.93
2019-05-21T19:51:24.947Z,13.93
2019-05-21T20:01:29.728Z,11.67
2019-05-21T20:11:34.264Z,15.63
2019-05-21T20:21:40.388Z,12.50
2019-05-21T20:31:45.362Z,16.33
2019-05-21T20:41:50.424Z,16.27
2019-05-21T20:52:34.572Z,20.37
2019-05-21T21:02:40.752Z,0.10
2019-05-21T21:12:45.480Z,0.10
2019-05-21T21:22:50.007Z,0.10
2019-05-21T21:32:56.397Z,0.10
2019-05-21T21:43:01.265Z,0.10
2019-05-21T21:53:06.000Z,0.10
2019-05-21T22:03:12.479Z,0.10
2019-05-21T22:13:17.402Z,0.10
2019-05-21T22:23:23.373Z,0.10
2019-05-21T22:33:28.072Z,0.10
2019-05-21T22:43:33.153Z,0.10
2019-05-21T22:53:37.759Z,0.30
2019-05-21T23:03:42.339Z,0.10
2019-05-21T23:13:46.843Z,0.10
2019-05-21T23:23:53.678Z,0.10
2019-05-21T23:34:00.386Z,0.10
2019-05-21T23:44:05.989Z,0.10
2019-05-21T23:54:10.978Z,0.10
